createdAt,value
2022-11-13T00:01:25.561Z,2.45
2022-11-13T00:03:52.777Z,3.10
2022-11-13T00:06:20.377Z,2.45
2022-11-13T00:08:47.926Z,2.30
2022-11-13T00:11:18.625Z,2.15
2022-11-13T00:13:53.463Z,1.65
2022-11-13T00:16:21.915Z,1.40
2022-11-13T00:18:48.823Z,2.17
2022-11-13T00:21:22.456Z,1.90
2022-11-13T00:23:49.955Z,2.92
2022-11-13T00:26:23.653Z,1.40
2022-11-13T00:28:55.811Z,1.67
2022-11-13T00:31:23.320Z,2.05
2022-11-13T00:34:25.863Z,1.50
2022-11-13T00:36:37.870Z,1.73
2022-11-13T00:39:04.757Z,2.20
2022-11-13T00:41:31.602Z,1.77
2022-11-13T00:43:58.401Z,1.52
2022-11-13T00:46:25.288Z,1.50
2022-11-13T00:48:52.178Z,1.25
2022-11-13T00:51:19.875Z,1.27
2022-11-13T00:53:47.169Z,1.15
2022-11-13T00:56:14.027Z,2.03
2022-11-13T00:58:41.185Z,2.25
2022-11-13T01:01:14.345Z,3.10
2022-11-13T01:03:41.897Z,1.83
2022-11-13T01:06:14.875Z,1.38
2022-11-13T01:08:42.294Z,1.60
2022-11-13T01:11:20.627Z,1.60
2022-11-13T01:13:50.057Z,1.08
2022-11-13T01:16:21.463Z,2.13
2022-11-13T01:18:48.817Z,1.85
2022-11-13T01:21:20.780Z,2.40
2022-11-13T01:23:48.568Z,2.17
2022-11-13T01:26:23.815Z,1.67
2022-11-13T01:28:50.882Z,1.33
2022-11-13T01:31:22.947Z,1.80
2022-11-13T01:33:50.573Z,2.58
2022-11-13T01:36:25.055Z,1.52
2022-11-13T01:38:52.407Z,2.40
2022-11-13T01:41:25.358Z,3.67
2022-11-13T01:43:54.298Z,2.15
2022-11-13T01:46:27.200Z,2.40
2022-11-13T01:49:12.185Z,2.65
2022-11-13T01:51:42.649Z,1.98
2022-11-13T01:54:26.176Z,1.63
2022-11-13T01:56:55.333Z,1.30
2022-11-13T01:59:31.275Z,1.63
2022-11-13T02:02:11.383Z,1.33
2022-11-13T02:04:38.478Z,1.42
2022-11-13T02:07:12.093Z,2.40
2022-11-13T02:09:49.258Z,1.45
2022-11-13T02:12:23.438Z,1.70
2022-11-13T02:14:54.254Z,2.53
2022-11-13T02:17:33.579Z,1.50
2022-11-13T02:20:05.377Z,2.25
2022-11-13T02:22:54.950Z,3.15
2022-11-13T02:25:22.963Z,1.30
2022-11-13T02:27:50.952Z,1.60
2022-11-13T02:30:26.864Z,2.08
2022-11-13T02:32:57.014Z,2.47
2022-11-13T02:35:33.873Z,2.92
2022-11-13T02:38:05.030Z,2.78
2022-11-13T02:40:34.826Z,2.20
2022-11-13T02:43:01.704Z,2.75
2022-11-13T02:45:28.772Z,2.63
2022-11-13T02:47:55.790Z,2.90
2022-11-13T02:50:22.757Z,2.90
2022-11-13T02:52:49.741Z,2.50
2022-11-13T02:55:16.785Z,2.20
2022-11-13T02:57:43.684Z,3.15
2022-11-13T03:00:14.114Z,2.10
2022-11-13T03:02:41.710Z,2.78
2022-11-13T03:05:12.550Z,2.33
2022-11-13T03:07:40.788Z,3.88
2022-11-13T03:10:09.046Z,2.83
2022-11-13T03:12:38.050Z,2.85
2022-11-13T03:15:07.882Z,2.28
2022-11-13T03:17:35.933Z,2.78
2022-11-13T03:20:04.618Z,2.20
2022-11-13T03:22:31.546Z,3.28
2022-11-13T03:24:58.525Z,2.22
2022-11-13T03:27:25.432Z,3.13
2022-11-13T03:29:52.249Z,2.88
2022-11-13T03:32:23.834Z,2.80
2022-11-13T03:34:50.694Z,2.58
2022-11-13T03:37:17.544Z,2.80
2022-11-13T03:39:44.423Z,2.70
2022-11-13T03:42:11.223Z,3.42
2022-11-13T03:44:38.093Z,2.25
2022-11-13T03:47:07.831Z,2.30
2022-11-13T03:49:34.769Z,2.50
2022-11-13T03:52:02.011Z,3.40
2022-11-13T03:54:29.002Z,1.90
2022-11-13T03:56:56.152Z,3.08
2022-11-13T03:59:22.995Z,2.13
2022-11-13T04:01:49.947Z,2.90
2022-11-13T04:04:17.089Z,2.55
2022-11-13T04:06:44.157Z,2.97
2022-11-13T04:09:11.444Z,2.95
2022-11-13T04:11:38.374Z,3.40
2022-11-13T04:14:05.216Z,3.13
2022-11-13T04:16:32.025Z,3.42
2022-11-13T04:18:59.037Z,3.17
2022-11-13T04:21:36.154Z,2.60
2022-11-13T04:24:03.208Z,3.08
2022-11-13T04:26:30.114Z,3.40
2022-11-13T04:28:57.164Z,2.42
2022-11-13T04:31:24.089Z,2.30
2022-11-13T04:33:50.887Z,3.00
2022-11-13T04:36:17.810Z,3.40
2022-11-13T04:38:44.609Z,3.28
2022-11-13T04:41:32.187Z,3.72
2022-11-13T04:43:59.053Z,3.15
2022-11-13T04:46:28.605Z,3.67
2022-11-13T04:48:55.448Z,2.45
2022-11-13T04:51:22.481Z,2.47
2022-11-13T04:53:49.433Z,3.38
2022-11-13T04:56:16.423Z,2.50
2022-11-13T04:58:43.489Z,2.35
2022-11-13T05:01:10.394Z,2.22
2022-11-13T05:03:38.056Z,3.20
2022-11-13T05:06:10.050Z,2.50
2022-11-13T05:08:37.472Z,2.60
2022-11-13T05:11:04.630Z,2.92
2022-11-13T05:13:35.367Z,3.05
2022-11-13T05:16:11.625Z,3.35
2022-11-13T05:18:39.553Z,2.70
2022-11-13T05:21:08.577Z,3.85
2022-11-13T05:23:36.182Z,2.70
2022-11-13T05:26:09.824Z,2.75
2022-11-13T05:28:37.678Z,3.55
2022-11-13T05:31:05.435Z,4.07
2022-11-13T05:33:32.486Z,2.70
2022-11-13T05:36:08.720Z,3.05
2022-11-13T05:38:36.657Z,3.72
2022-11-13T05:41:10.073Z,3.70
2022-11-13T05:43:38.443Z,3.92
2022-11-13T05:46:17.446Z,2.97
2022-11-13T05:48:45.908Z,4.13
2022-11-13T05:51:19.494Z,3.08
2022-11-13T05:53:46.530Z,3.53
2022-11-13T05:56:23.353Z,3.33
2022-11-13T05:58:52.306Z,3.53
2022-11-13T06:01:32.023Z,3.22
2022-11-13T06:04:01.017Z,3.50
2022-11-13T06:06:29.415Z,2.83
2022-11-13T06:08:58.469Z,2.95
2022-11-13T06:11:29.128Z,3.28
2022-11-13T06:13:57.595Z,2.97
2022-11-13T06:16:33.625Z,3.15
2022-11-13T06:19:02.580Z,2.67
2022-11-13T06:21:33.735Z,2.85
2022-11-13T06:24:02.224Z,2.72
2022-11-13T06:26:36.024Z,2.75
2022-11-13T06:29:05.245Z,3.25
2022-11-13T06:31:35.233Z,3.17
2022-11-13T06:34:02.746Z,2.72
2022-11-13T06:36:34.361Z,3.38
2022-11-13T06:39:02.426Z,3.15
2022-11-13T06:41:43.653Z,2.88
2022-11-13T06:44:10.490Z,2.80
2022-11-13T06:46:39.932Z,3.30
2022-11-13T06:49:07.295Z,3.45
2022-11-13T06:51:34.185Z,2.85
2022-11-13T06:54:01.215Z,3.00
2022-11-13T06:56:28.179Z,2.72
2022-11-13T06:58:56.478Z,3.10
2022-11-13T07:01:25.980Z,3.10
2022-11-13T07:03:53.343Z,2.85
2022-11-13T07:06:23.481Z,3.17
2022-11-13T07:08:52.749Z,2.90
2022-11-13T07:11:23.129Z,2.75
2022-11-13T07:13:50.993Z,3.05
2022-11-13T07:16:18.434Z,3.92
2022-11-13T07:18:54.872Z,3.45
2022-11-13T07:21:26.221Z,3.40
2022-11-13T07:23:53.401Z,2.80
2022-11-13T07:26:20.572Z,2.80
2022-11-13T07:28:48.666Z,2.85
2022-11-13T07:31:17.646Z,3.08
2022-11-13T07:33:44.950Z,3.13
2022-11-13T07:36:15.175Z,3.72
2022-11-13T07:38:42.980Z,2.60
2022-11-13T07:41:09.938Z,4.47
2022-11-13T07:43:36.758Z,4.13
2022-11-13T07:46:03.908Z,4.15
2022-11-13T07:48:31.270Z,2.60
2022-11-13T07:51:02.835Z,2.65
2022-11-13T07:53:30.169Z,2.70
2022-11-13T07:56:05.204Z,3.55
2022-11-13T07:58:32.285Z,3.83
2022-11-13T08:01:04.824Z,3.35
2022-11-13T08:03:32.386Z,3.90
2022-11-13T08:06:07.627Z,2.50
2022-11-13T08:08:35.417Z,3.10
2022-11-13T08:11:09.651Z,3.42
2022-11-13T08:13:37.207Z,5.10
2022-11-13T08:16:05.088Z,3.75
2022-11-13T08:18:33.599Z,3.38
2022-11-13T08:21:10.510Z,4.28
2022-11-13T08:23:42.386Z,4.93
2022-11-13T08:26:11.290Z,3.13
2022-11-13T08:28:38.621Z,3.63
2022-11-13T08:31:09.597Z,5.43
2022-11-13T08:33:36.454Z,3.08
2022-11-13T08:36:03.734Z,3.50
2022-11-13T08:38:30.915Z,3.33
2022-11-13T08:41:04.411Z,3.85
2022-11-13T08:43:34.250Z,3.00
2022-11-13T08:46:01.324Z,4.32
2022-11-13T08:48:28.960Z,4.03
2022-11-13T08:50:57.728Z,3.83
2022-11-13T08:53:25.467Z,4.65
2022-11-13T08:55:53.063Z,3.60
2022-11-13T08:58:20.021Z,4.40
2022-11-13T09:00:47.238Z,4.65
2022-11-13T09:03:14.202Z,4.03
2022-11-13T09:05:41.064Z,3.72
2022-11-13T09:08:17.030Z,4.50
2022-11-13T09:10:43.890Z,3.50
2022-11-13T09:13:18.471Z,4.53
2022-11-13T09:15:45.309Z,4.55
2022-11-13T09:18:12.213Z,3.53
2022-11-13T09:20:39.106Z,4.22
2022-11-13T09:23:12.683Z,4.07
2022-11-13T09:25:39.511Z,4.63
2022-11-13T09:28:07.346Z,4.00
2022-11-13T09:30:34.749Z,5.57
2022-11-13T09:33:02.181Z,4.50
2022-11-13T09:35:37.127Z,4.47
2022-11-13T09:38:15.731Z,4.97
2022-11-13T09:41:13.312Z,4.38
2022-11-13T09:43:48.797Z,4.38
2022-11-13T09:46:46.718Z,4.35
2022-11-13T09:49:16.180Z,4.68
2022-11-13T09:52:03.931Z,4.88
2022-11-13T09:54:34.039Z,5.20
2022-11-13T09:57:49.470Z,4.30
2022-11-13T10:00:20.204Z,4.93
2022-11-13T10:03:17.657Z,5.10
2022-11-13T10:05:59.515Z,4.90
2022-11-13T10:08:58.047Z,6.10
2022-11-13T10:11:44.783Z,4.72
2022-11-13T10:14:26.653Z,5.45
2022-11-13T10:17:28.021Z,5.45
2022-11-13T10:20:00.515Z,4.47
2022-11-13T10:23:01.528Z,5.43
2022-11-13T10:25:36.271Z,5.45
2022-11-13T10:31:13.727Z,7.90
2022-11-13T10:33:40.754Z,7.53
2022-11-13T10:36:50.807Z,6.80
2022-11-13T10:39:17.940Z,6.22
2022-11-13T10:41:54.803Z,6.88
2022-11-13T10:44:29.239Z,6.32
2022-11-13T10:48:01.968Z,9.10
2022-11-13T10:50:30.657Z,6.38
2022-11-13T10:52:58.741Z,5.25
2022-11-13T10:55:34.375Z,6.00
2022-11-13T10:58:05.092Z,5.50
2022-11-13T11:00:35.653Z,6.72
2022-11-13T11:03:13.530Z,6.03
2022-11-13T11:05:40.275Z,7.32
2022-11-13T11:08:10.993Z,5.90
2022-11-13T11:10:57.831Z,5.80
2022-11-13T11:13:24.730Z,10.90
2022-11-13T11:15:58.146Z,12.57
2022-11-13T11:18:53.370Z,6.65
2022-11-13T11:21:27.199Z,13.73
2022-11-13T11:24:01.352Z,13.85
2022-11-13T11:26:45.487Z,9.55
2022-11-13T11:29:50.954Z,7.45
2022-11-13T11:32:49.276Z,10.52
2022-11-13T11:35:24.780Z,9.18
2022-11-13T11:38:29.688Z,11.73
2022-11-13T11:41:16.654Z,7.45
2022-11-13T11:43:48.915Z,7.57
2022-11-13T11:46:23.149Z,12.23
2022-11-13T11:48:51.095Z,12.18
2022-11-13T11:51:34.612Z,8.25
2022-11-13T11:54:40.772Z,7.70
2022-11-13T11:57:49.791Z,7.55
2022-11-13T12:00:21.270Z,8.25
2022-11-13T12:02:59.920Z,8.75
2022-11-13T12:05:52.943Z,9.68
2022-11-13T12:08:37.509Z,8.30
2022-11-13T12:11:22.216Z,8.75
2022-11-13T12:14:13.948Z,7.95
2022-11-13T12:16:52.288Z,12.02
2022-11-13T12:20:11.372Z,15.82
2022-11-13T12:23:11.832Z,9.30
2022-11-13T12:25:57.472Z,10.77
2022-11-13T12:28:41.442Z,10.68
2022-11-13T12:31:39.155Z,14.57
2022-11-13T12:34:33.677Z,13.07
2022-11-13T12:37:06.648Z,8.07
2022-11-13T12:42:09.388Z,9.93
2022-11-13T12:45:09.400Z,10.40
2022-11-13T12:47:37.048Z,11.40
2022-11-13T12:50:31.826Z,10.38
2022-11-13T12:53:06.439Z,9.85
2022-11-13T12:55:37.756Z,13.45
2022-11-13T12:58:21.176Z,10.82
2022-11-13T13:01:02.262Z,8.73
2022-11-13T13:03:41.172Z,10.32
2022-11-13T13:06:19.464Z,10.18
2022-11-13T13:09:11.031Z,11.38
2022-11-13T13:11:55.054Z,9.95
2022-11-13T13:15:20.113Z,9.40
2022-11-13T13:17:46.836Z,7.72
2022-11-13T13:20:28.408Z,7.65
2022-11-13T13:23:00.364Z,8.85
2022-11-13T13:25:35.715Z,8.07
2022-11-13T13:28:19.637Z,8.90
2022-11-13T13:31:27.614Z,8.05
2022-11-13T13:34:15.847Z,13.85
2022-11-13T13:37:03.757Z,14.35
2022-11-13T13:39:43.106Z,15.50
2022-11-13T13:42:57.547Z,14.38
2022-11-13T13:45:58.156Z,10.55
2022-11-13T13:48:27.643Z,13.10
2022-11-13T13:50:55.471Z,17.75
2022-11-13T13:53:27.832Z,14.70
2022-11-13T13:55:59.239Z,13.50
2022-11-13T13:58:33.698Z,13.60
2022-11-13T14:01:22.456Z,13.05
2022-11-13T14:03:49.251Z,14.30
2022-11-13T14:06:25.929Z,13.20
2022-11-13T14:08:52.624Z,14.65
2022-11-13T14:11:29.941Z,15.90
2022-11-13T14:14:08.986Z,16.55
2022-11-13T14:16:48.175Z,24.08
2022-11-13T14:19:14.987Z,32.67
2022-11-13T14:21:45.439Z,25.67
2022-11-13T14:24:36.447Z,13.50
2022-11-13T14:27:07.576Z,15.45
2022-11-13T14:29:45.677Z,22.77
2022-11-13T14:32:22.451Z,27.17
2022-11-13T14:34:52.328Z,12.13
2022-11-13T14:37:45.444Z,18.65
2022-11-13T14:40:33.932Z,11.27
2022-11-13T14:43:07.642Z,12.20
2022-11-13T14:45:34.890Z,8.93
2022-11-13T14:48:27.959Z,9.57
2022-11-13T14:50:59.438Z,13.07
2022-11-13T14:53:37.893Z,10.82
2022-11-13T14:56:09.928Z,14.63
2022-11-13T14:58:47.115Z,10.90
2022-11-13T15:01:19.340Z,13.68
2022-11-13T15:03:47.960Z,10.87
2022-11-13T15:06:15.942Z,8.82
2022-11-13T15:08:44.365Z,8.85
2022-11-13T15:11:15.243Z,7.80
2022-11-13T15:13:42.338Z,7.35
2022-11-13T15:16:29.235Z,8.07
2022-11-13T15:19:09.979Z,9.02
2022-11-13T15:21:36.685Z,8.23
2022-11-13T15:24:03.568Z,6.85
2022-11-13T15:26:30.350Z,9.10
2022-11-13T15:28:57.035Z,9.55
2022-11-13T15:31:40.340Z,9.15
2022-11-13T15:34:11.361Z,8.75
2022-11-13T15:36:38.907Z,8.88
2022-11-13T15:39:15.645Z,7.93
2022-11-13T15:41:47.897Z,13.52
2022-11-13T15:44:15.916Z,18.00
2022-11-13T15:46:42.725Z,18.85
2022-11-13T15:49:09.413Z,10.93
2022-11-13T15:51:49.031Z,9.93
2022-11-13T15:54:30.723Z,11.52
2022-11-13T15:56:57.439Z,9.70
2022-11-13T15:59:24.193Z,9.02
2022-11-13T16:01:56.586Z,10.00
2022-11-13T16:04:26.704Z,13.57
2022-11-13T16:07:01.218Z,14.77
2022-11-13T16:09:27.991Z,9.23
2022-11-13T16:11:54.861Z,10.30
2022-11-13T16:14:24.839Z,9.90
2022-11-13T16:16:52.808Z,9.02
2022-11-13T16:19:25.661Z,9.18
2022-11-13T16:21:54.206Z,8.18
2022-11-13T16:24:24.152Z,8.63
2022-11-13T16:26:56.953Z,10.60
2022-11-13T16:29:24.837Z,9.65
2022-11-13T16:31:52.547Z,10.60
2022-11-13T16:34:21.028Z,10.85
2022-11-13T16:36:47.974Z,10.23
2022-11-13T16:39:17.724Z,10.70
2022-11-13T16:41:44.568Z,9.05
2022-11-13T16:44:11.287Z,23.42
2022-11-13T16:46:41.804Z,42.17
2022-11-13T16:49:20.249Z,41.83
2022-11-13T16:51:47.093Z,31.75
2022-11-13T16:54:14.264Z,34.95
2022-11-13T16:56:41.098Z,17.90
2022-11-13T16:59:10.619Z,15.93
2022-11-13T17:01:37.456Z,13.13
2022-11-13T17:04:04.925Z,24.92
2022-11-13T17:06:36.444Z,11.10
2022-11-13T17:09:04.687Z,13.55
2022-11-13T17:11:37.662Z,16.88
2022-11-13T17:16:32.413Z,12.80
2022-11-13T17:19:00.500Z,11.60
2022-11-13T17:21:29.225Z,11.15
2022-11-13T17:24:02.429Z,10.88
2022-11-13T17:26:31.501Z,12.85
2022-11-13T17:28:59.964Z,12.82
2022-11-13T17:31:26.911Z,11.63
2022-11-13T17:33:55.009Z,10.75
2022-11-13T17:36:22.530Z,11.73
2022-11-13T17:38:49.496Z,12.70
2022-11-13T17:41:17.385Z,13.70
2022-11-13T17:43:44.615Z,10.20
2022-11-13T17:46:14.886Z,10.40
2022-11-13T17:48:42.625Z,12.02
2022-11-13T17:51:13.597Z,13.90
2022-11-13T17:53:40.748Z,10.38
2022-11-13T17:56:11.764Z,10.88
2022-11-13T17:58:41.403Z,10.32
2022-11-13T18:01:15.755Z,11.25
2022-11-13T18:03:43.153Z,9.48
2022-11-13T18:06:19.528Z,11.65
2022-11-13T18:08:47.287Z,9.85
2022-11-13T18:11:19.464Z,11.80
2022-11-13T18:13:48.331Z,8.98
2022-11-13T18:16:25.770Z,11.07
2022-11-13T18:18:55.600Z,11.25
2022-11-13T18:21:29.667Z,17.60
2022-11-13T18:23:58.796Z,31.52
2022-11-13T18:26:27.077Z,43.35
2022-11-13T18:28:54.371Z,60.00
2022-11-13T18:31:21.604Z,24.05
2022-11-13T18:33:48.378Z,20.65
2022-11-13T18:36:15.716Z,13.75
2022-11-13T18:38:43.557Z,16.60
2022-11-13T18:41:23.414Z,15.23
2022-11-13T18:43:51.972Z,13.18
2022-11-13T18:46:21.621Z,16.88
2022-11-13T18:48:49.349Z,11.52
2022-11-13T18:51:22.144Z,10.68
2022-11-13T18:53:50.869Z,14.30
2022-11-13T18:56:31.861Z,12.98
2022-11-13T18:59:00.019Z,11.38
2022-11-13T19:01:30.574Z,26.48
2022-11-13T19:04:21.607Z,17.17
2022-11-13T19:06:49.459Z,19.35
2022-11-13T19:09:17.763Z,16.40
2022-11-13T19:11:45.504Z,17.98
2022-11-13T19:14:18.010Z,14.20
2022-11-13T19:16:44.895Z,10.00
2022-11-13T19:19:22.291Z,15.40
2022-11-13T19:21:50.105Z,14.20
2022-11-13T19:24:17.278Z,15.13
2022-11-13T19:26:44.955Z,10.57
2022-11-13T19:29:12.140Z,10.25
2022-11-13T19:31:38.902Z,19.42
2022-11-13T19:34:07.832Z,16.75
2022-11-13T19:36:36.342Z,12.07
2022-11-13T19:39:04.861Z,19.05
2022-11-13T19:41:31.604Z,15.25
2022-11-13T19:43:59.869Z,18.17
2022-11-13T19:46:27.390Z,14.07
2022-11-13T19:48:54.296Z,12.75
2022-11-13T19:51:24.532Z,9.35
2022-11-13T19:53:56.268Z,10.45
2022-11-13T19:56:25.688Z,12.07
2022-11-13T19:58:52.857Z,10.38
2022-11-13T20:01:25.759Z,9.80
2022-11-13T20:06:29.622Z,7.55
2022-11-13T20:08:58.913Z,9.30
2022-11-13T20:11:25.921Z,9.23
2022-11-13T20:13:52.856Z,7.38
2022-11-13T20:16:22.064Z,8.98
2022-11-13T20:18:49.552Z,10.48
2022-11-13T20:21:26.883Z,14.52
2022-11-13T20:23:56.846Z,11.50
2022-11-13T20:26:24.360Z,10.30
2022-11-13T20:28:57.373Z,11.52
2022-11-13T20:31:25.714Z,11.18
2022-11-13T20:33:55.145Z,13.73
2022-11-13T20:36:23.411Z,8.48
2022-11-13T20:38:53.972Z,8.85
2022-11-13T20:41:21.350Z,8.77
2022-11-13T20:43:49.013Z,9.68
2022-11-13T20:46:19.128Z,8.65
2022-11-13T20:48:46.385Z,9.23
2022-11-13T20:51:19.504Z,7.40
2022-11-13T20:53:47.638Z,10.95
2022-11-13T20:56:15.624Z,8.77
2022-11-13T20:58:42.375Z,8.27
2022-11-13T21:01:15.794Z,9.45
2022-11-13T21:03:44.756Z,9.82
2022-11-13T21:06:15.394Z,8.50
2022-11-13T21:08:43.129Z,7.97
2022-11-13T21:11:15.698Z,9.48
2022-11-13T21:13:42.433Z,9.25
2022-11-13T21:16:10.182Z,8.65
2022-11-13T21:18:37.919Z,7.82
2022-11-13T21:21:14.106Z,7.43
2022-11-13T21:23:40.836Z,7.88
2022-11-13T21:26:09.351Z,6.50
2022-11-13T21:28:36.819Z,5.93
2022-11-13T21:31:07.828Z,7.20
2022-11-13T21:33:39.284Z,6.35
2022-11-13T21:36:28.544Z,5.97
2022-11-13T21:38:56.413Z,6.15
2022-11-13T21:41:25.170Z,6.10
2022-11-13T21:44:04.707Z,6.45
2022-11-13T21:46:41.928Z,6.95
2022-11-13T21:49:13.528Z,8.20
2022-11-13T21:51:43.092Z,6.30
2022-11-13T21:54:10.136Z,5.95
2022-11-13T21:56:38.599Z,6.07
2022-11-13T21:59:06.945Z,6.60
2022-11-13T22:01:38.231Z,8.95
2022-11-13T22:04:06.410Z,5.90
2022-11-13T22:06:37.731Z,7.82
2022-11-13T22:09:14.789Z,5.40
2022-11-13T22:11:42.143Z,6.07
2022-11-13T22:14:09.074Z,6.32
2022-11-13T22:16:39.692Z,5.97
2022-11-13T22:19:11.588Z,6.05
2022-11-13T22:21:38.896Z,5.75
2022-11-13T22:24:06.001Z,5.65
2022-11-13T22:26:41.065Z,5.95
2022-11-13T22:29:08.772Z,6.97
2022-11-13T22:31:37.010Z,6.28
2022-11-13T22:34:04.421Z,5.82
2022-11-13T22:36:36.470Z,8.80
2022-11-13T22:39:04.683Z,9.47
2022-11-13T22:41:34.460Z,6.25
2022-11-13T22:44:05.234Z,8.05
2022-11-13T22:46:34.977Z,8.52
2022-11-13T22:49:03.764Z,6.63
2022-11-13T22:51:35.235Z,6.85
2022-11-13T22:54:05.840Z,7.10
2022-11-13T22:56:34.434Z,7.93
2022-11-13T22:59:03.497Z,6.47
2022-11-13T23:01:36.354Z,7.45
2022-11-13T23:04:06.615Z,6.75
2022-11-13T23:06:36.930Z,5.90
2022-11-13T23:09:05.522Z,6.65
2022-11-13T23:11:40.732Z,6.07
2022-11-13T23:14:13.161Z,6.32
2022-11-13T23:16:40.060Z,6.45
2022-11-13T23:19:07.563Z,6.90
2022-11-13T23:21:34.297Z,6.47
2022-11-13T23:24:02.190Z,6.18
2022-11-13T23:26:28.977Z,6.35
2022-11-13T23:28:56.903Z,7.68
2022-11-13T23:31:23.692Z,5.20
2022-11-13T23:33:50.565Z,5.97
2022-11-13T23:36:20.509Z,6.22
2022-11-13T23:38:47.360Z,6.00
2022-11-13T23:41:14.095Z,6.00
2022-11-13T23:44:07.638Z,5.28
2022-11-13T23:46:27.635Z,6.63
2022-11-13T23:48:54.355Z,5.28
2022-11-13T23:51:21.071Z,5.68
2022-11-13T23:53:47.830Z,6.75
2022-11-13T23:56:14.524Z,6.32
2022-11-13T23:58:41.240Z,6.15
